Time;durP1;ratioP1;P1;durP2;ratioP2;P2;SDS_P1;SDS_P2;PMS_P1;PMS_P2;Temp;Humidity;BMP_temperature;BMP_pressure;BME280_temperature;BME280_humidity;BME280_pressure;Samples;Min_cycle;Max_cycle;Signal;HPM_P1;HPM_P2
2022/06/14 00:03:36;;;;;;;7.35;3.80;;;;;;;19.34;83.43;99660.34;10292872;28;20058;-75
2022/06/14 00:08:38;;;;;;;4.37;3.37;;;;;;;19.02;83.65;99639.28;10292309;28;20059;-75
2022/06/14 00:13:39;;;;;;;8.40;3.80;;;;;;;18.66;84.23;99606.28;10292711;28;20058;-75
2022/06/14 00:18:40;;;;;;;5.53;3.65;;;;;;;18.71;84.52;99603.69;10291216;28;20042;-75
2022/06/14 00:23:41;;;;;;;6.78;3.30;;;;;;;18.90;84.76;99647.41;10291698;28;20129;-75
2022/06/14 00:28:44;;;;;;;7.22;3.75;;;;;;;18.56;85.58;99616.84;10290327;28;20499;-75
2022/06/14 00:33:45;;;;;;;6.22;3.80;;;;;;;17.96;85.68;99533.88;10291160;28;20538;-76
2022/06/14 00:38:46;;;;;;;8.55;3.85;;;;;;;18.60;86.42;99646.78;10291881;28;20035;-75
2022/06/14 00:43:47;;;;;;;23.42;4.78;;;;;;;18.54;86.49;99656.59;10291470;28;20546;-75
2022/06/14 00:48:55;;;;;;;6.47;3.85;;;;;;;18.39;87.62;99627.50;10291287;28;20137;-75
2022/06/14 00:54:06;;;;;;;7.15;4.20;;;;;;;18.46;87.56;99662.38;10290838;28;20558;-75
2022/06/14 00:59:13;;;;;;;36.10;6.20;;;;;;;18.20;89.18;99629.53;10296657;28;20038;-76
2022/06/14 01:04:23;;;;;;;11.68;4.22;;;;;;;18.58;90.46;99670.41;10299132;28;20043;-75
2022/06/14 01:09:56;;;;;;;23.42;5.30;;;;;;;17.85;88.91;99561.56;10299101;28;20066;-75
2022/06/14 01:15:03;;;;;;;19.87;5.07;;;;;;;17.99;88.99;99565.66;10298029;28;20426;-75
2022/06/14 01:20:04;;;;;;;10.27;4.10;;;;;;;18.79;87.54;99677.06;10313531;28;20043;-75
2022/06/14 01:25:07;;;;;;;17.60;4.90;;;;;;;19.01;87.80;99699.56;10298280;28;20082;-76
2022/06/14 01:30:08;;;;;;;6.68;4.40;;;;;;;19.02;88.34;99705.78;10298177;28;20408;-75
2022/06/14 01:35:14;;;;;;;8.45;3.97;;;;;;;18.86;90.13;99681.25;10298422;28;20068;-75
2022/06/14 01:40:15;;;;;;;29.77;6.15;;;;;;;19.02;89.51;99722.72;10297146;28;20086;-76
2022/06/14 01:45:47;;;;;;;11.98;4.30;;;;;;;18.23;92.83;99602.19;10297125;28;20078;-75
2022/06/14 01:56:34;;;;;;;15.55;4.82;;;;;;;19.10;91.15;99738.50;10296968;28;20085;-75
2022/06/14 02:01:53;;;;;;;8.15;4.57;;;;;;;18.66;94.77;99641.25;10324320;28;20069;-76
2022/06/14 02:06:57;;;;;;;10.40;4.85;;;;;;;19.43;91.87;99757.72;10336701;28;20057;-76
2022/06/14 02:12:03;;;;;;;8.68;4.97;;;;;;;19.40;93.73;99734.78;10335801;28;20049;-76
2022/06/14 02:17:11;;;;;;;16.17;5.72;;;;;;;19.78;96.49;99754.91;10336587;28;20133;-75
2022/06/14 02:22:19;;;;;;;8.13;5.60;;;;;;;20.24;100.00;99764.56;10323710;28;20050;-75
2022/06/14 02:27:31;;;;;;;14.88;6.47;;;;;;;20.52;100.00;99757.44;10308666;28;20106;-75
2022/06/14 02:32:34;;;;;;;11.85;5.28;;;;;;;20.79;99.54;99749.50;10317701;28;20085;-76
2022/06/14 02:37:47;;;;;;;11.32;4.78;;;;;;;20.35;100.00;99651.44;10326541;28;20105;-76
2022/06/14 02:42:58;;;;;;;7.63;4.23;;;;;;;21.08;100.00;99746.59;10321224;28;20050;-75
2022/06/14 02:48:06;;;;;;;8.25;3.95;;;;;;;21.22;98.38;99749.75;10314067;28;20046;-76
2022/06/14 02:53:17;;;;;;;9.52;3.55;;;;;;;20.54;99.90;99630.41;10329804;28;20149;-76
2022/06/14 02:58:25;;;;;;;11.70;3.58;;;;;;;20.63;98.20;99637.81;10330513;28;20042;-78
2022/06/14 03:03:38;;;;;;;13.00;4.72;;;;;;;20.78;98.43;99663.34;10321874;28;20042;-75
2022/06/14 03:08:50;;;;;;;36.38;15.93;;;;;;;21.25;97.55;99727.63;10334125;28;20133;-76
2022/06/14 03:14:16;;;;;;;17.02;7.32;;;;;;;21.32;96.03;99749.84;10334546;28;20133;-76
2022/06/14 03:19:28;;;;;;;12.40;4.40;;;;;;;21.01;94.67;99667.69;10333623;28;20041;-76
2022/06/14 03:24:40;;;;;;;11.68;2.72;;;;;;;21.73;92.27;99788.97;10334592;28;20038;-77
2022/06/14 03:29:51;;;;;;;9.55;2.85;;;;;;;21.73;90.07;99763.81;10332558;28;20490;-76
2022/06/14 03:34:59;;;;;;;11.05;2.60;;;;;;;23.41;83.43;99778.47;10331932;28;20081;-76
2022/06/14 03:40:06;;;;;;;8.45;2.47;;;;;;;22.84;79.25;99657.44;10333764;28;20569;-77
2022/06/14 03:45:10;;;;;;;11.68;2.50;;;;;;;23.75;79.38;99777.22;10333957;28;20042;-76
2022/06/14 03:50:23;;;;;;;17.98;2.67;;;;;;;23.94;78.79;99778.34;10331475;28;20038;-77
2022/06/14 03:55:32;;;;;;;15.00;2.17;;;;;;;25.18;75.54;99780.63;10332101;28;20042;-77
2022/06/14 04:00:51;;;;;;;18.40;2.70;;;;;;;26.04;69.49;99781.25;10332070;28;20074;-78
2022/06/14 04:05:55;;;;;;;12.55;2.08;;;;;;;25.47;70.08;99801.72;10331848;28;20054;-74
2022/06/14 04:11:31;;;;;;;11.23;2.45;;;;;;;24.67;71.58;99791.63;10331628;28;20042;-75
2022/06/14 04:16:42;;;;;;;8.10;2.53;;;;;;;24.28;73.29;99794.91;10329270;28;20471;-79
2022/06/14 04:21:43;;;;;;;10.93;2.20;;;;;;;23.61;73.71;99674.69;10331559;28;20057;-78
2022/06/14 04:26:46;;;;;;;5.53;1.67;;;;;;;24.28;73.10;99792.19;10309730;28;20042;-77
2022/06/14 04:32:10;;;;;;;;;;;;;;;24.37;71.29;99803.31;10307911;28;20129;-76
2022/06/14 04:37:18;;;;;;;14.93;2.30;;;;;;;23.47;72.01;99693.38;10317421;28;19919;-79
2022/06/14 04:42:33;;;;;;;7.10;2.08;;;;;;;24.19;71.07;99799.25;10322514;28;20050;-78
2022/06/14 04:47:46;;;;;;;16.08;2.00;;;;;;;24.32;70.13;99808.72;10331497;28;20510;-78
2022/06/14 04:52:57;;;;;;;15.65;2.42;;;;;;;24.62;68.33;99796.25;10329084;28;20050;-78
2022/06/14 04:58:04;;;;;;;8.60;1.88;;;;;;;25.44;65.88;99807.72;10290403;28;20043;-79
2022/06/14 05:03:20;;;;;;;7.35;1.55;;;;;;;25.90;63.05;99813.72;10295067;28;20046;-77
2022/06/14 05:08:51;;;;;;;13.20;2.20;;;;;;;25.20;63.99;99747.75;10290872;28;20055;-75
2022/06/14 05:14:08;;;;;;;6.03;1.38;;;;;;;25.49;62.88;99799.53;10290000;28;20059;-77
2022/06/14 05:19:29;;;;;;;13.75;2.00;;;;;;;25.42;62.76;99791.66;10291001;28;20443;-75
2022/06/14 05:24:31;;;;;;;6.25;2.30;;;;;;;25.04;62.41;99744.25;10290853;28;20050;-78
2022/06/14 05:30:01;;;;;;;7.70;2.00;;;;;;;24.88;60.86;99683.72;10300862;28;20096;-76
2022/06/14 05:35:28;;;;;;;11.48;1.70;;;;;;;25.76;58.40;99807.28;10290006;28;20054;-83
2022/06/14 05:40:50;;;;;;;10.82;1.90;;;;;;;25.70;60.14;99811.13;10289887;28;20042;-77
2022/06/14 05:45:59;;;;;;;10.57;2.60;;;;;;;25.71;60.21;99799.94;10293915;28;20122;-70
2022/06/14 05:51:04;;;;;;;10.27;2.00;;;;;;;26.05;59.37;99806.53;10297304;28;20046;-71
2022/06/14 05:56:12;;;;;;;8.23;2.03;;;;;;;26.16;58.21;99795.28;10311405;28;20038;-69
2022/06/14 06:01:20;;;;;;;12.65;1.85;;;;;;;25.79;59.67;99771.34;10322902;28;20542;-71
2022/06/14 06:06:35;;;;;;;10.00;1.60;;;;;;;25.95;56.74;99791.91;10323316;28;20082;-69
2022/06/14 06:12:09;;;;;;;8.27;2.20;;;;;;;26.14;56.75;99802.13;10325970;28;20049;-70
2022/06/14 06:17:19;;;;;;;11.23;2.20;;;;;;;26.18;55.46;99811.34;10322762;28;20509;-70
2022/06/14 06:22:28;;;;;;;15.38;2.38;;;;;;;25.41;55.85;99692.16;10313320;28;20093;-69
2022/06/14 06:27:39;;;;;;;10.55;1.60;;;;;;;26.02;54.91;99802.47;10331191;28;20516;-69
2022/06/14 06:32:41;;;;;;;7.35;1.77;;;;;;;26.17;55.19;99779.78;10331110;28;20413;-70
2022/06/14 06:37:59;;;;;;;7.77;1.50;;;;;;;26.31;52.32;99778.00;10335808;28;20413;-71
2022/06/14 06:43:09;;;;;;;8.07;1.70;;;;;;;26.61;52.33;99817.81;10324995;28;20042;-70
2022/06/14 06:48:21;;;;;;;8.40;1.60;;;;;;;26.66;51.71;99810.69;10332773;28;20035;-71
2022/06/14 06:53:24;;;;;;;8.25;1.70;;;;;;;26.85;51.75;99795.22;10334980;28;20046;-71
2022/06/14 06:58:26;;;;;;;8.07;1.83;;;;;;;27.31;50.30;99811.06;10328785;28;20042;-70
2022/06/14 07:03:52;;;;;;;10.83;2.00;;;;;;;27.33;49.11;99773.41;10336273;28;20100;-70
2022/06/14 07:09:05;;;;;;;8.23;1.85;;;;;;;27.56;47.31;99800.94;10330111;28;20112;-72
2022/06/14 07:14:16;;;;;;;7.53;1.23;;;;;;;27.21;46.39;99694.75;10333543;28;20042;-69
2022/06/14 07:19:25;;;;;;;31.02;2.17;;;;;;;27.86;45.30;99807.91;10334284;28;20074;-70
2022/06/14 07:24:30;;;;;;;15.98;1.85;;;;;;;27.00;43.66;99690.66;10333873;28;20050;-71
2022/06/14 07:29:38;;;;;;;10.88;1.48;;;;;;;27.62;42.95;99808.75;10333925;28;20049;-70
2022/06/14 07:34:41;;;;;;;5.60;1.20;;;;;;;27.09;43.16;99714.22;10332390;28;20042;-69
2022/06/14 07:39:54;;;;;;;5.35;1.00;;;;;;;28.05;41.74;99810.59;10334146;28;20050;-69
2022/06/14 07:45:12;;;;;;;27.83;2.83;;;;;;;28.38;41.03;99811.41;10334191;28;20046;-71
2022/06/14 07:50:16;;;;;;;10.70;1.70;;;;;;;28.13;41.30;99799.81;10332840;28;20046;-70
2022/06/14 07:55:32;;;;;;;8.35;1.75;;;;;;;27.50;42.01;99693.81;10332269;28;20058;-71
2022/06/14 08:06:01;;;;;;;15.63;2.03;;;;;;;27.66;43.49;99673.34;10331900;28;20054;-69
2022/06/14 08:11:13;;;;;;;10.88;1.80;;;;;;;28.34;44.01;99775.69;10331593;28;20425;-70
2022/06/14 08:16:15;;;;;;;13.23;2.08;;;;;;;27.81;42.44;99679.69;10332294;28;20050;-70
2022/06/14 08:21:33;;;;;;;25.38;1.92;;;;;;;27.48;40.72;99592.34;10347248;28;20492;-71
2022/06/14 08:26:55;;;;;;;24.52;2.95;;;;;;;28.76;39.36;99748.47;10332544;28;20100;-70
2022/06/14 08:32:05;;;;;;;10.23;1.70;;;;;;;28.94;39.28;99794.03;10346358;28;20045;-72
2022/06/14 08:37:15;;;;;;;9.85;2.03;;;;;;;28.94;39.40;99769.41;10346300;28;20042;-72
2022/06/14 08:42:32;;;;;;;11.40;1.88;;;;;;;29.25;38.77;99771.53;10332376;28;20095;-69
2022/06/14 08:47:40;;;;;;;12.68;1.80;;;;;;;29.05;37.74;99650.53;10328994;28;20129;-70
2022/06/14 08:53:16;;;;;;;14.35;1.85;;;;;;;30.13;35.54;99757.50;10331302;28;20054;-70
2022/06/14 08:58:42;;;;;;;8.75;1.75;;;;;;;30.47;34.77;99751.41;10330674;28;20502;-69
2022/06/14 09:04:04;;;;;;;16.38;2.38;;;;;;;30.34;33.36;99750.41;10336892;28;20047;-72
2022/06/14 09:09:40;;;;;;;13.50;2.05;;;;;;;30.82;32.07;99735.16;10315273;28;20481;-69
2022/06/14 09:15:07;;;;;;;16.60;2.28;;;;;;;30.93;33.16;99725.47;10330620;28;20054;-71
2022/06/14 09:20:26;;;;;;;11.73;2.03;;;;;;;30.45;31.35;99727.09;10335692;28;20049;-69
2022/06/14 09:25:30;;;;;;;17.25;2.03;;;;;;;30.75;31.03;99710.09;10338711;28;20042;-69
2022/06/14 09:31:02;;;;;;;18.45;2.28;;;;;;;30.71;30.33;99655.88;10338298;28;20069;-70
2022/06/14 09:36:43;;;;;;;16.08;2.60;;;;;;;30.52;30.55;99690.19;10338273;28;20062;-68
2022/06/14 09:42:05;;;;;;;9.97;2.37;;;;;;;30.50;30.33;99714.34;10352733;28;20050;-70
2022/06/14 09:47:21;;;;;;;20.67;2.67;;;;;;;30.46;29.54;99709.50;10337811;28;20057;-68
2022/06/14 09:52:45;;;;;;;19.10;2.15;;;;;;;30.76;29.27;99714.47;10337035;28;20046;-66
2022/06/14 09:57:49;;;;;;;9.40;2.08;;;;;;;30.97;28.99;99706.47;10337080;28;20039;-70
2022/06/14 10:03:10;;;;;;;41.15;4.15;;;;;;;30.08;28.37;99557.69;10325805;28;20054;-69
2022/06/14 10:08:27;;;;;;;26.92;3.13;;;;;;;31.20;27.23;99696.97;10303436;28;20151;-71
2022/06/14 10:13:55;;;;;;;17.98;2.80;;;;;;;30.97;27.95;99681.78;10316082;28;20038;-72
2022/06/14 10:19:07;;;;;;;21.58;2.40;;;;;;;31.20;27.77;99693.41;10313115;28;20037;-71
2022/06/14 10:24:19;;;;;;;17.67;2.47;;;;;;;31.42;27.75;99700.75;10312979;28;20046;-70
2022/06/14 10:29:50;;;;;;;10.32;2.08;;;;;;;31.41;27.40;99690.88;10316141;28;20042;-69
2022/06/14 10:35:10;;;;;;;22.50;3.43;;;;;;;31.18;27.87;99692.94;10330342;28;20685;-71
2022/06/14 10:40:51;;;;;;;18.92;2.58;;;;;;;31.12;26.65;99686.81;10312359;28;20042;-70
2022/06/14 10:46:08;;;;;;;13.33;2.03;;;;;;;30.98;26.62;99673.22;10286120;28;20054;-70
2022/06/14 10:51:43;;;;;;;14.75;2.25;;;;;;;30.99;26.99;99687.75;10314812;28;20812;-70
2022/06/14 10:57:06;;;;;;;25.30;2.75;;;;;;;30.91;28.10;99659.19;10309160;28;20057;-70
2022/06/14 11:02:42;;;;;;;17.08;2.03;;;;;;;30.41;26.02;99572.63;10311394;28;20511;-69
2022/06/14 11:08:01;;;;;;;17.83;2.42;;;;;;;30.36;26.65;99574.69;10314302;28;20050;-70
2022/06/14 11:13:11;;;;;;;20.52;2.70;;;;;;;30.99;26.59;99674.03;10317560;28;20148;-71
2022/06/14 11:18:14;;;;;;;25.65;3.55;;;;;;;31.01;27.05;99655.31;10310958;28;20042;-68
2022/06/14 11:23:29;;;;;;;21.27;3.25;;;;;;;31.12;26.86;99668.41;10310388;28;20073;-68
2022/06/14 11:28:59;;;;;;;13.50;2.10;;;;;;;31.14;26.74;99666.16;10316557;28;20116;-70
2022/06/14 11:34:02;;;;;;;21.55;2.58;;;;;;;31.00;26.93;99664.69;10324550;28;20126;-69
2022/06/14 11:39:27;;;;;;;15.15;2.22;;;;;;;30.89;26.20;99669.66;10328743;28;20129;-69
2022/06/14 11:44:50;;;;;;;36.20;2.85;;;;;;;29.99;26.25;99547.50;10331591;28;20074;-69
2022/06/14 11:50:05;;;;;;;21.77;2.35;;;;;;;30.62;26.53;99677.00;10310875;28;20442;-69
2022/06/14 11:55:26;;;;;;;101.03;7.80;;;;;;;30.34;26.30;99649.00;10322938;28;20530;-70
2022/06/14 12:00:33;;;;;;;11.13;2.30;;;;;;;30.45;26.01;99675.00;10331022;28;20088;-71
2022/06/14 12:06:18;;;;;;;19.63;2.55;;;;;;;30.54;26.73;99675.03;10324358;28;20038;-69
2022/06/14 12:11:30;;;;;;;13.80;2.13;;;;;;;30.39;26.90;99659.00;10281718;28;20053;-69
2022/06/14 12:16:38;;;;;;;20.40;2.45;;;;;;;30.38;27.17;99660.16;10293954;28;20482;-70
2022/06/14 12:21:57;;;;;;;28.92;2.65;;;;;;;30.53;26.45;99662.44;10322561;28;20049;-70
2022/06/14 12:27:03;;;;;;;25.63;2.80;;;;;;;29.86;26.79;99545.69;10325388;28;20074;-71
2022/06/14 12:32:31;;;;;;;24.55;2.88;;;;;;;30.61;27.35;99647.16;10309282;28;20116;-71
2022/06/14 12:37:50;;;;;;;29.02;3.22;;;;;;;30.38;26.86;99638.22;10311706;28;20409;-70
2022/06/14 12:43:26;;;;;;;19.15;2.80;;;;;;;30.42;27.90;99629.06;10326373;28;20042;-70
2022/06/14 12:48:45;;;;;;;20.45;2.72;;;;;;;30.21;26.85;99595.13;10322305;28;20133;-70
2022/06/14 12:54:15;;;;;;;27.38;2.70;;;;;;;30.66;28.02;99649.75;10334376;28;20096;-69
2022/06/14 12:59:34;;;;;;;19.55;2.38;;;;;;;30.67;27.50;99648.63;10318731;28;20421;-70
2022/06/14 13:04:59;;;;;;;26.02;3.17;;;;;;;30.56;27.61;99644.56;10299089;28;20433;-71
2022/06/14 13:10:15;;;;;;;18.77;2.83;;;;;;;30.51;27.92;99652.94;10299130;28;20059;-69
2022/06/14 13:16:07;;;;;;;29.55;3.10;;;;;;;29.84;27.91;99567.09;10299337;28;20062;-70
2022/06/14 13:21:35;;;;;;;11.45;2.20;;;;;;;30.31;27.40;99666.09;10296820;28;20120;-71
2022/06/14 13:26:47;;;;;;;12.23;1.98;;;;;;;30.20;27.02;99642.81;10297925;28;20514;-69
2022/06/14 13:32:25;;;;;;;20.38;2.90;;;;;;;30.31;27.50;99638.69;10298200;28;20383;-71
2022/06/14 13:37:47;;;;;;;20.85;2.50;;;;;;;29.67;27.00;99540.44;10300556;28;20089;-71
2022/06/14 13:42:58;;;;;;;16.77;2.13;;;;;;;30.23;27.80;99637.53;10336476;28;20046;-69
2022/06/14 13:48:24;;;;;;;36.67;3.28;;;;;;;30.18;27.76;99631.34;10337318;28;20205;-69
2022/06/14 13:53:49;;;;;;;53.58;4.50;;;;;;;30.18;27.69;99634.06;10324316;28;20086;-69
2022/06/14 13:59:02;;;;;;;23.35;2.22;;;;;;;30.12;26.55;99630.66;10295838;28;20513;-70
2022/06/14 14:04:22;;;;;;;32.97;3.55;;;;;;;28.75;27.07;99407.91;10295010;28;20422;-69
2022/06/14 14:09:47;;;;;;;34.15;4.45;;;;;;;30.04;27.13;99634.19;10296115;28;20078;-69
2022/06/14 14:15:06;;;;;;;13.27;2.40;;;;;;;29.81;27.49;99600.56;10296185;28;20529;-70
2022/06/14 14:20:27;;;;;;;34.65;3.05;;;;;;;29.28;27.95;99531.00;10296047;28;20043;-69
2022/06/14 14:25:42;;;;;;;40.80;3.27;;;;;;;28.38;28.61;99394.28;10296351;28;20046;-74
2022/06/14 14:30:58;;;;;;;23.35;2.40;;;;;;;29.08;28.74;99515.94;10322410;28;20047;-70
2022/06/14 14:36:05;;;;;;;38.35;4.15;;;;;;;29.75;29.05;99638.22;10336021;28;20046;-70
2022/06/14 14:41:32;;;;;;;22.60;3.20;;;;;;;29.74;29.32;99642.09;10335814;28;20050;-72
2022/06/14 14:46:37;;;;;;;64.22;4.90;;;;;;;29.53;29.21;99616.31;10294929;28;20586;-71
2022/06/14 14:51:45;;;;;;;27.27;3.33;;;;;;;29.62;29.08;99641.06;10295309;28;20057;-73
2022/06/14 14:56:45;;;;;;;34.42;3.95;;;;;;;29.26;29.54;99587.97;10295179;28;20053;-72
2022/06/14 15:07:40;;;;;;;15.55;2.47;;;;;;;29.53;29.40;99635.47;10294295;28;20059;-69
2022/06/14 15:12:46;;;;;;;15.20;2.35;;;;;;;29.50;30.13;99645.13;10294362;28;20134;-70
2022/06/14 15:23:31;;;;;;;20.73;2.80;;;;;;;29.50;31.06;99655.25;10293150;28;20050;-71
2022/06/14 15:28:46;;;;;;;99.07;6.85;;;;;;;29.20;31.55;99630.25;10298502;28;20038;-70
2022/06/14 15:33:46;;;;;;;16.75;2.80;;;;;;;28.62;31.91;99574.34;10368645;28;20352;-71
2022/06/14 15:38:55;;;;;;;10.70;1.77;;;;;;;28.21;32.05;99542.44;10373487;28;20135;-70
2022/06/14 15:44:18;;;;;;;22.27;2.42;;;;;;;28.97;32.07;99673.13;10374193;28;20045;-69
2022/06/14 15:49:24;;;;;;;12.65;1.83;;;;;;;28.78;32.55;99691.56;10340922;28;20043;-74
2022/06/14 15:54:31;;;;;;;115.13;7.43;;;;;;;28.66;32.83;99706.56;10318727;28;20050;-74
2022/06/14 15:59:38;;;;;;;17.92;2.38;;;;;;;28.44;33.01;99684.59;10316054;28;20038;-76
2022/06/14 16:04:39;;;;;;;23.95;3.08;;;;;;;28.38;32.79;99702.94;10309240;28;20403;-73
2022/06/14 16:09:46;;;;;;;16.65;2.22;;;;;;;28.22;33.44;99720.75;10304680;28;20477;-73
2022/06/14 16:14:53;;;;;;;29.55;2.42;;;;;;;28.03;33.99;99715.34;10307925;28;20046;-75
2022/06/14 16:20:15;;;;;;;24.80;3.15;;;;;;;27.82;35.21;99711.31;10317848;28;20053;-78
2022/06/14 16:25:35;;;;;;;47.20;4.07;;;;;;;27.74;35.70;99727.25;10331285;28;20138;-76
2022/06/14 16:31:17;;;;;;;29.73;3.40;;;;;;;27.58;35.83;99734.03;10330117;28;20077;-74
2022/06/14 16:36:32;;;;;;;13.25;1.85;;;;;;;26.69;36.53;99616.69;10330039;28;20391;-75
2022/06/14 16:42:06;;;;;;;13.18;1.80;;;;;;;27.37;36.71;99752.59;10329744;28;20046;-76
2022/06/14 16:47:48;;;;;;;14.77;1.90;;;;;;;27.17;37.01;99742.00;10331274;28;20490;-74
2022/06/14 16:52:58;;;;;;;17.80;2.00;;;;;;;26.44;36.88;99640.34;10319149;28;20043;-73
2022/06/14 16:58:25;;;;;;;7.50;1.65;;;;;;;26.99;37.81;99758.00;10313188;28;20051;-71
2022/06/14 17:03:45;;;;;;;11.55;2.13;;;;;;;26.94;38.09;99763.50;10284656;28;20086;-79
2022/06/14 17:09:07;;;;;;;7.47;1.60;;;;;;;26.81;38.58;99775.91;10289684;28;20081;-74
2022/06/14 17:14:26;;;;;;;18.20;2.05;;;;;;;26.70;38.52;99770.88;10290539;28;20043;-72
2022/06/14 17:19:49;;;;;;;7.82;1.60;;;;;;;26.63;38.86;99784.84;10288733;28;20043;-72
2022/06/14 17:24:53;;;;;;;;;;;;;;;26.64;38.63;99781.00;10327199;28;20043;-75
2022/06/14 17:30:08;;;;;;;6.38;1.40;;;;;;;26.39;39.78;99790.22;10305951;28;20016;-76
2022/06/14 17:35:22;;;;;;;6.35;1.58;;;;;;;26.04;40.85;99747.78;10304150;28;20453;-74
2022/06/14 17:40:31;;;;;;;5.40;1.58;;;;;;;26.05;41.70;99779.31;10316229;28;20053;-75
2022/06/14 17:45:38;;;;;;;4.22;1.13;;;;;;;25.84;41.78;99770.50;10316896;28;20042;-76
2022/06/14 17:50:46;;;;;;;11.95;1.80;;;;;;;25.95;42.35;99800.06;10314024;28;20060;-76
2022/06/14 17:55:55;;;;;;;8.05;1.50;;;;;;;25.08;43.29;99684.72;10320178;28;20038;-74
2022/06/14 18:01:28;;;;;;;4.25;1.42;;;;;;;25.72;43.75;99800.75;10315137;28;20038;-74
2022/06/14 18:06:49;;;;;;;6.80;1.58;;;;;;;25.59;44.39;99806.81;10307003;28;20058;-76
2022/06/14 18:11:59;;;;;;;4.43;1.20;;;;;;;23.85;46.10;99563.00;10322321;28;20506;-74
2022/06/14 18:17:02;;;;;;;7.75;1.52;;;;;;;24.60;45.73;99709.66;10327865;28;20034;-74
2022/06/14 18:22:03;;;;;;;7.90;1.57;;;;;;;24.99;46.37;99804.88;10318728;28;20141;-76
2022/06/14 18:27:04;;;;;;;11.48;1.80;;;;;;;25.01;47.18;99810.03;10318663;28;20050;-73
2022/06/14 18:32:28;;;;;;;13.15;1.70;;;;;;;24.55;48.05;99762.06;10311407;28;20042;-73
2022/06/14 18:37:41;;;;;;;6.93;1.77;;;;;;;24.80;48.50;99817.44;10321308;28;20048;-74
2022/06/14 18:42:44;;;;;;;9.55;1.40;;;;;;;24.67;49.03;99817.97;10316352;28;20402;-78
2022/06/14 18:47:51;;;;;;;7.78;1.50;;;;;;;23.59;49.72;99660.59;10316632;28;20046;-74
2022/06/14 18:53:01;;;;;;;3.90;1.27;;;;;;;24.48;50.95;99818.53;10318373;28;20049;-75
2022/06/14 18:58:18;;;;;;;3.30;1.30;;;;;;;24.14;50.97;99794.66;10314183;28;20045;-76
2022/06/14 19:03:22;;;;;;;5.47;1.80;;;;;;;24.25;50.93;99819.88;10292994;28;20038;-74
2022/06/14 19:09:04;;;;;;;3.33;1.10;;;;;;;24.22;51.79;99816.88;10330871;28;20062;-75
2022/06/14 19:14:17;;;;;;;4.07;1.40;;;;;;;23.63;52.36;99756.59;10317829;28;20050;-75
2022/06/14 19:19:20;;;;;;;4.95;1.50;;;;;;;23.92;51.61;99819.28;10330469;28;20038;-74
2022/06/14 19:24:28;;;;;;;8.35;1.63;;;;;;;22.42;53.36;99603.41;10333171;28;20128;-75
2022/06/14 19:29:47;;;;;;;6.10;1.33;;;;;;;23.64;53.59;99817.88;10331941;28;20192;-76
2022/06/14 19:35:16;;;;;;;4.60;1.40;;;;;;;23.71;53.59;99833.91;10331683;28;20414;-74
2022/06/14 19:40:29;;;;;;;4.95;1.30;;;;;;;23.46;54.18;99813.75;10331900;28;20038;-75
2022/06/14 19:45:31;;;;;;;;;;;;;;;23.65;52.17;99845.78;10331377;28;20035;-74
2022/06/14 19:50:52;;;;;;;5.68;1.13;;;;;;;23.44;54.74;99844.91;10330300;28;19960;-76
2022/06/14 19:55:58;;;;;;;4.80;1.45;;;;;;;23.25;54.89;99839.13;10331475;28;20038;-74
2022/06/14 20:01:09;;;;;;;3.35;1.20;;;;;;;22.97;55.61;99813.25;10346747;28;20682;-77
2022/06/14 20:06:19;;;;;;;5.68;1.38;;;;;;;23.20;56.74;99850.75;10330109;28;20144;-74
2022/06/14 20:11:26;;;;;;;5.30;1.15;;;;;;;23.15;55.79;99845.31;10331266;28;20133;-73
2022/06/14 20:16:30;;;;;;;6.15;1.60;;;;;;;22.96;56.34;99828.69;10332050;28;20073;-74
2022/06/14 20:21:31;;;;;;;4.60;1.50;;;;;;;23.01;55.76;99830.63;10330217;28;20053;-75
2022/06/14 20:26:32;;;;;;;3.50;1.40;;;;;;;23.04;55.92;99832.81;10331480;28;20038;-75
2022/06/14 20:31:47;;;;;;;3.78;1.30;;;;;;;22.86;57.06;99815.06;10330833;28;20053;-74
2022/06/14 20:36:59;;;;;;;4.95;1.40;;;;;;;22.98;57.11;99847.41;10331375;28;20038;-75
2022/06/14 20:42:12;;;;;;;4.37;1.40;;;;;;;22.94;57.42;99830.00;10332340;28;20042;-73
2022/06/14 20:47:21;;;;;;;4.15;1.50;;;;;;;22.67;57.64;99793.00;10331683;28;20353;-75
2022/06/14 20:52:24;;;;;;;4.60;1.10;;;;;;;22.82;57.02;99832.91;10331099;28;20046;-73
2022/06/14 20:57:34;;;;;;;4.38;1.33;;;;;;;22.66;57.84;99813.03;10330871;28;20498;-74
2022/06/14 21:02:36;;;;;;;7.13;1.42;;;;;;;22.71;57.42;99825.81;10313018;28;20046;-75
2022/06/14 21:07:38;;;;;;;4.00;1.27;;;;;;;22.66;57.65;99825.75;10331707;28;20061;-75
2022/06/14 21:12:43;;;;;;;5.05;1.67;;;;;;;22.48;58.15;99799.91;10330621;28;20047;-75
2022/06/14 21:17:44;;;;;;;2.53;1.10;;;;;;;21.93;58.12;99706.38;10339517;28;20497;-74
2022/06/14 21:22:51;;;;;;;5.43;1.40;;;;;;;22.24;59.21;99762.41;10339308;28;20042;-75
2022/06/14 21:27:53;;;;;;;5.82;1.23;;;;;;;22.54;58.85;99828.66;10339423;28;20506;-74
2022/06/14 21:32:54;;;;;;;2.42;1.30;;;;;;;22.54;58.74;99812.41;10337271;28;20417;-73
2022/06/14 21:38:07;;;;;;;4.32;1.35;;;;;;;21.92;60.02;99718.28;10336704;28;20031;-75
2022/06/14 21:43:19;;;;;;;3.67;1.23;;;;;;;22.47;60.25;99817.25;10338077;28;20512;-75
2022/06/14 21:48:22;;;;;;;3.88;1.27;;;;;;;21.70;59.79;99708.38;10336281;28;20049;-74
2022/06/14 21:53:31;;;;;;;3.63;1.30;;;;;;;22.39;61.04;99832.06;10337632;28;20038;-75
2022/06/14 21:58:36;;;;;;;4.22;1.25;;;;;;;21.73;60.60;99761.94;10337294;28;20050;-74
2022/06/14 22:04:00;;;;;;;5.00;1.20;;;;;;;21.97;61.24;99781.34;10323283;28;20512;-75
2022/06/14 22:09:03;;;;;;;2.88;1.00;;;;;;;21.56;60.88;99726.06;10317214;28;20061;-75
2022/06/14 22:14:11;;;;;;;4.43;1.10;;;;;;;22.13;61.80;99844.50;10296152;28;20042;-75
2022/06/14 22:19:14;;;;;;;4.25;1.48;;;;;;;21.27;61.48;99710.09;10326691;28;20053;-74
2022/06/14 22:29:36;;;;;;;7.75;1.50;;;;;;;21.20;62.70;99722.97;10327204;28;20555;-75
2022/06/14 22:34:48;;;;;;;2.85;1.40;;;;;;;21.31;65.15;99770.66;10295852;28;20562;-74
2022/06/14 22:39:49;;;;;;;4.18;1.50;;;;;;;21.03;64.52;99751.94;10294134;28;20043;-75
2022/06/14 22:44:54;;;;;;;4.70;1.52;;;;;;;21.49;67.25;99841.69;10295165;28;20384;-74
2022/06/14 22:49:55;;;;;;;3.70;1.40;;;;;;;21.39;66.24;99826.97;10295308;28;20039;-75
2022/06/14 22:54:56;;;;;;;4.20;1.20;;;;;;;20.72;66.88;99732.66;10295230;28;20398;-75
2022/06/14 22:59:57;;;;;;;6.03;1.65;;;;;;;21.30;67.31;99839.25;10295378;28;20402;-74
2022/06/14 23:04:58;;;;;;;6.60;1.52;;;;;;;21.46;67.95;99850.28;10294640;28;20388;-74
2022/06/14 23:09:58;;;;;;;2.30;1.40;;;;;;;21.31;68.29;99834.66;10294242;28;20051;-74
2022/06/14 23:14:59;;;;;;;3.78;1.33;;;;;;;20.72;68.71;99756.94;10293113;28;20133;-75
2022/06/14 23:20:00;;;;;;;4.13;1.58;;;;;;;21.40;69.32;99871.84;10293852;28;20092;-74
2022/06/14 23:25:01;;;;;;;3.13;1.60;;;;;;;20.15;69.51;99673.53;10294666;28;20042;-74
2022/06/14 23:30:03;;;;;;;3.13;1.83;;;;;;;21.32;70.11;99852.50;10292749;28;20069;-75
2022/06/14 23:35:05;;;;;;;3.50;1.80;;;;;;;20.72;71.11;99767.72;10293610;28;20043;-75
2022/06/14 23:40:10;;;;;;;3.53;1.75;;;;;;;21.37;71.13;99868.81;10293205;28;20517;-76
2022/06/14 23:45:11;;;;;;;9.70;2.03;;;;;;;21.17;71.41;99847.72;10308289;28;20039;-75
2022/06/14 23:50:12;;;;;;;2.88;1.60;;;;;;;21.31;71.63;99867.91;10293707;28;20049;-76
2022/06/14 23:55:13;;;;;;;4.63;1.70;;;;;;;21.39;71.65;99881.03;10293483;28;20565;-74
